createdAt,value
2018-03-15T00:01:00.487Z,93.33
2018-03-15T00:03:34.588Z,93.59
2018-03-15T00:06:05.783Z,93.72
2018-03-15T00:08:33.365Z,93.89
2018-03-15T00:11:00.815Z,93.92
2018-03-15T00:13:28.309Z,93.80
2018-03-15T00:15:55.816Z,94.27
2018-03-15T00:18:23.305Z,94.37
2018-03-15T00:20:51.257Z,94.44
2018-03-15T00:23:18.733Z,94.48
2018-03-15T00:25:46.221Z,94.73
2018-03-15T00:28:13.681Z,94.80
2018-03-15T00:30:41.159Z,94.82
2018-03-15T00:33:08.661Z,94.73
2018-03-15T00:35:36.130Z,94.52
2018-03-15T00:38:03.637Z,94.29
2018-03-15T00:40:31.137Z,94.76
2018-03-15T00:42:58.636Z,94.71
2018-03-15T00:45:26.137Z,94.70
2018-03-15T00:47:53.624Z,94.80
2018-03-15T00:50:21.101Z,94.72
2018-03-15T00:52:48.578Z,94.71
2018-03-15T00:55:16.088Z,94.58
2018-03-15T00:57:43.604Z,94.57
2018-03-15T01:00:11.154Z,94.67
2018-03-15T01:02:38.642Z,94.92
2018-03-15T01:05:06.152Z,95.16
2018-03-15T01:07:33.632Z,95.09
2018-03-15T01:10:01.161Z,94.92
2018-03-15T01:12:28.652Z,95.30
2018-03-15T01:14:56.137Z,95.34
2018-03-15T01:17:23.641Z,95.49
2018-03-15T01:19:51.112Z,95.55
2018-03-15T01:22:18.613Z,95.35
2018-03-15T01:24:46.108Z,95.44
2018-03-15T01:27:13.600Z,95.58
2018-03-15T01:29:41.129Z,95.51
2018-03-15T01:32:08.602Z,95.40
2018-03-15T01:34:36.639Z,95.47
2018-03-15T01:37:04.155Z,95.43
2018-03-15T01:39:31.636Z,95.88
2018-03-15T01:41:59.149Z,95.86
2018-03-15T01:44:26.650Z,96.10
2018-03-15T01:46:54.134Z,95.94
2018-03-15T01:49:21.649Z,96.16
2018-03-15T01:51:49.157Z,96.54
2018-03-15T01:54:16.645Z,96.41
2018-03-15T01:56:44.145Z,96.64
2018-03-15T01:59:11.666Z,96.85
2018-03-15T02:01:39.150Z,97.03
2018-03-15T02:04:06.609Z,96.93
2018-03-15T02:06:34.098Z,97.12
2018-03-15T02:09:01.587Z,97.40
2018-03-15T02:11:29.108Z,97.49
2018-03-15T02:13:56.605Z,97.51
2018-03-15T02:16:24.102Z,97.78
2018-03-15T02:18:51.588Z,97.88
2018-03-15T02:21:19.096Z,97.99
2018-03-15T02:23:46.590Z,98.21
2018-03-15T02:26:14.064Z,98.19
2018-03-15T02:28:41.540Z,97.96
2018-03-15T02:31:09.095Z,98.00
2018-03-15T02:33:36.584Z,97.89
2018-03-15T02:36:04.101Z,97.95
2018-03-15T02:38:31.606Z,97.89
2018-03-15T02:40:59.113Z,98.08
2018-03-15T02:43:26.603Z,98.13
2018-03-15T02:45:54.084Z,97.97
2018-03-15T02:48:21.567Z,98.15
2018-03-15T02:50:49.080Z,98.05
2018-03-15T02:53:16.580Z,98.19
2018-03-15T02:55:44.058Z,97.92
2018-03-15T02:58:11.556Z,97.82
2018-03-15T03:00:39.045Z,97.90
2018-03-15T03:03:06.596Z,97.64
2018-03-15T03:05:34.107Z,97.97
2018-03-15T03:08:01.564Z,97.82
2018-03-15T03:10:29.021Z,97.79
2018-03-15T03:12:56.506Z,97.89
2018-03-15T03:15:24.018Z,97.70
2018-03-15T03:17:51.918Z,97.60
2018-03-15T03:20:19.444Z,97.67
2018-03-15T03:22:46.937Z,97.70
2018-03-15T03:25:14.917Z,97.41
2018-03-15T03:27:42.374Z,97.61
2018-03-15T03:30:09.892Z,97.79
2018-03-15T03:32:37.378Z,97.85
2018-03-15T03:35:04.851Z,97.47
2018-03-15T03:37:32.353Z,97.53
2018-03-15T03:39:59.844Z,97.31
2018-03-15T03:42:27.335Z,97.50
2018-03-15T03:44:55.646Z,97.18
2018-03-15T03:47:23.155Z,97.28
2018-03-15T03:49:50.627Z,97.07
2018-03-15T03:52:18.105Z,96.60
2018-03-15T03:54:45.580Z,96.35
2018-03-15T03:57:13.073Z,96.37
2018-03-15T03:59:40.537Z,96.54
2018-03-15T04:02:08.010Z,96.55
2018-03-15T04:04:35.480Z,96.34
2018-03-15T04:07:02.988Z,96.27
2018-03-15T04:09:30.472Z,96.49
2018-03-15T04:11:57.967Z,96.04
2018-03-15T04:14:25.477Z,96.06
2018-03-15T04:16:52.968Z,96.03
2018-03-15T04:19:20.479Z,96.09
2018-03-15T04:21:47.976Z,96.11
2018-03-15T04:24:15.462Z,95.83
2018-03-15T04:26:42.954Z,95.48
2018-03-15T04:29:10.446Z,95.60
2018-03-15T04:31:37.940Z,95.87
2018-03-15T04:34:05.431Z,95.86
2018-03-15T04:36:32.929Z,95.98
2018-03-15T04:41:52.875Z,95.82
2018-03-15T04:44:20.374Z,95.82
2018-03-15T04:46:47.846Z,96.05
2018-03-15T04:49:15.380Z,96.25
2018-03-15T04:51:42.874Z,97.11
2018-03-15T04:54:10.361Z,97.90
2018-03-15T04:56:37.873Z,98.26
2018-03-15T04:59:05.354Z,98.29
2018-03-15T05:01:32.839Z,98.69
2018-03-15T05:04:00.327Z,98.71
2018-03-15T05:06:27.826Z,98.97
2018-03-15T05:08:56.103Z,99.13
2018-03-15T05:11:23.593Z,98.97
2018-03-15T05:13:51.086Z,98.59
2018-03-15T05:16:18.789Z,98.29
2018-03-15T05:18:46.289Z,97.93
2018-03-15T05:21:13.791Z,97.73
2018-03-15T05:23:41.458Z,97.43
2018-03-15T05:26:09.150Z,97.49
2018-03-15T05:28:37.326Z,97.43
2018-03-15T05:31:04.806Z,97.12
2018-03-15T05:33:32.310Z,97.14
2018-03-15T05:35:59.825Z,97.44
2018-03-15T05:38:27.385Z,97.84
2018-03-15T05:40:54.896Z,97.77
2018-03-15T05:43:22.365Z,97.95
2018-03-15T05:45:50.832Z,97.62
2018-03-15T05:48:18.321Z,97.70
2018-03-15T05:50:45.800Z,97.88
2018-03-15T05:53:13.305Z,97.12
2018-03-15T05:55:40.787Z,96.92
2018-03-15T05:58:08.276Z,97.07
2018-03-15T06:00:35.780Z,96.71
2018-03-15T06:03:03.264Z,95.57
2018-03-15T06:05:30.769Z,95.34
2018-03-15T06:07:58.264Z,94.97
2018-03-15T06:10:25.739Z,94.66
2018-03-15T06:12:53.232Z,94.26
2018-03-15T06:15:20.707Z,94.56
2018-03-15T06:17:48.197Z,94.30
2018-03-15T06:20:15.682Z,93.81
2018-03-15T06:22:43.199Z,94.01
2018-03-15T06:25:10.709Z,93.24
2018-03-15T06:27:38.249Z,93.23
2018-03-15T06:30:05.730Z,93.07
2018-03-15T06:32:33.251Z,93.35
2018-03-15T06:35:01.078Z,93.20
2018-03-15T06:37:28.585Z,93.58
2018-03-15T06:39:56.281Z,93.39
2018-03-15T06:42:25.137Z,93.36
2018-03-15T06:44:52.627Z,93.53
2018-03-15T06:47:20.163Z,93.32
2018-03-15T06:49:47.707Z,93.19
2018-03-15T06:52:15.221Z,93.57
2018-03-15T06:54:42.736Z,93.53
2018-03-15T06:57:10.277Z,93.71
2018-03-15T06:59:37.765Z,93.43
2018-03-15T07:02:05.297Z,93.40
2018-03-15T07:04:32.792Z,94.12
2018-03-15T07:07:00.322Z,93.72
2018-03-15T07:09:27.923Z,93.36
2018-03-15T07:11:55.425Z,93.42
2018-03-15T07:14:23.798Z,93.32
2018-03-15T07:16:51.281Z,92.53
2018-03-15T07:19:18.755Z,92.38
2018-03-15T07:21:46.214Z,92.16
2018-03-15T07:24:13.707Z,91.85
2018-03-15T07:26:41.222Z,90.66
2018-03-15T07:29:08.715Z,90.37
2018-03-15T07:31:36.202Z,90.22
2018-03-15T07:34:03.701Z,89.36
2018-03-15T07:36:31.262Z,89.18
2018-03-15T07:38:58.834Z,88.22
2018-03-15T07:41:26.341Z,86.89
2018-03-15T07:43:54.212Z,86.10
2018-03-15T07:46:21.696Z,85.05
2018-03-15T07:48:49.892Z,84.59
2018-03-15T07:51:17.389Z,83.79
2018-03-15T07:53:44.892Z,83.02
2018-03-15T07:56:12.859Z,82.53
2018-03-15T07:58:40.816Z,82.12
2018-03-15T08:01:08.305Z,81.47
2018-03-15T08:03:35.803Z,80.92
2018-03-15T08:06:03.301Z,81.30
2018-03-15T08:08:30.795Z,81.45
2018-03-15T08:10:58.268Z,80.86
2018-03-15T08:13:25.751Z,80.10
2018-03-15T08:15:54.113Z,78.62
2018-03-15T08:18:21.586Z,77.13
2018-03-15T08:20:49.080Z,78.37
2018-03-15T08:23:16.655Z,78.14
2018-03-15T08:25:44.151Z,77.78
2018-03-15T08:28:11.655Z,76.72
2018-03-15T08:30:39.152Z,76.10
2018-03-15T08:33:06.650Z,75.78
2018-03-15T08:35:34.187Z,75.75
2018-03-15T08:38:01.684Z,74.21
2018-03-15T08:40:29.208Z,72.82
2018-03-15T08:42:56.701Z,72.31
2018-03-15T08:45:24.209Z,72.67
2018-03-15T08:47:52.348Z,72.11
2018-03-15T08:50:19.836Z,72.12
2018-03-15T08:52:48.189Z,70.28
2018-03-15T08:55:15.737Z,72.64
2018-03-15T08:57:43.232Z,70.50
2018-03-15T09:00:10.728Z,72.92
2018-03-15T09:02:38.649Z,72.66
2018-03-15T09:05:06.130Z,72.19
2018-03-15T09:07:33.638Z,73.56
2018-03-15T09:10:01.130Z,75.36
2018-03-15T09:12:28.612Z,76.43
2018-03-15T09:14:56.112Z,75.20
2018-03-15T09:17:24.398Z,76.39
2018-03-15T09:19:52.063Z,76.08
2018-03-15T09:22:19.536Z,75.50
2018-03-15T09:24:47.017Z,76.08
2018-03-15T09:27:14.530Z,75.04
2018-03-15T09:29:42.018Z,75.15
2018-03-15T09:32:09.544Z,74.18
2018-03-15T09:34:37.079Z,73.47
2018-03-15T09:37:04.596Z,74.01
2018-03-15T09:39:32.177Z,74.44
2018-03-15T09:41:59.713Z,75.09
2018-03-15T09:44:27.264Z,74.13
2018-03-15T09:46:54.769Z,74.56
2018-03-15T09:49:22.265Z,72.69
2018-03-15T09:51:49.755Z,72.59
2018-03-15T09:54:18.578Z,74.71
2018-03-15T09:56:46.102Z,71.65
2018-03-15T09:59:13.636Z,69.50
2018-03-15T10:01:42.145Z,71.82
2018-03-15T10:04:09.688Z,71.19
2018-03-15T10:06:37.201Z,70.98
2018-03-15T10:09:04.750Z,72.34
2018-03-15T10:11:32.194Z,72.98
2018-03-15T10:13:59.725Z,72.55
2018-03-15T10:16:27.270Z,72.89
2018-03-15T10:18:54.748Z,73.11
2018-03-15T10:21:22.292Z,73.38
2018-03-15T10:23:49.800Z,74.31
2018-03-15T10:26:17.308Z,74.49
2018-03-15T10:28:44.796Z,74.22
2018-03-15T10:31:12.313Z,74.14
2018-03-15T10:33:39.812Z,75.02
2018-03-15T10:36:07.306Z,74.39
2018-03-15T10:38:34.806Z,74.79
2018-03-15T10:41:03.408Z,74.92
2018-03-15T10:43:31.752Z,74.42
2018-03-15T10:45:59.636Z,75.25
2018-03-15T10:48:27.130Z,74.91
2018-03-15T10:50:54.601Z,75.00
2018-03-15T10:53:22.576Z,73.87
2018-03-15T10:55:50.079Z,74.50
2018-03-15T10:58:17.569Z,75.03
2018-03-15T11:00:50.593Z,74.55
2018-03-15T11:03:18.097Z,74.54
2018-03-15T11:05:48.988Z,75.37
2018-03-15T11:08:22.161Z,76.46
2018-03-15T11:10:49.638Z,74.33
2018-03-15T11:13:18.671Z,74.22
2018-03-15T11:15:46.324Z,74.44
2018-03-15T11:18:13.808Z,72.90
2018-03-15T11:20:41.319Z,73.64
2018-03-15T11:23:08.877Z,73.91
2018-03-15T11:25:36.379Z,73.06
2018-03-15T11:28:03.879Z,73.66
2018-03-15T11:30:31.370Z,72.70
2018-03-15T11:32:58.870Z,72.43
2018-03-15T11:35:26.427Z,72.43
2018-03-15T11:37:53.929Z,72.44
2018-03-15T11:40:21.429Z,72.47
2018-03-15T11:42:48.925Z,72.47
2018-03-15T11:45:16.424Z,72.74
2018-03-15T11:47:43.942Z,73.05
2018-03-15T11:50:12.327Z,72.08
2018-03-15T11:52:39.820Z,72.46
2018-03-15T11:55:07.348Z,72.47
2018-03-15T11:57:34.910Z,71.83
2018-03-15T12:00:02.427Z,71.33
2018-03-15T12:02:29.926Z,72.32
2018-03-15T12:04:57.423Z,70.95
2018-03-15T12:07:24.938Z,71.85
2018-03-15T12:09:52.466Z,71.15
2018-03-15T12:12:19.957Z,70.86
2018-03-15T12:14:48.970Z,71.34
2018-03-15T12:17:16.695Z,70.74
2018-03-15T12:19:44.196Z,70.69
2018-03-15T12:22:11.697Z,70.90
2018-03-15T12:24:39.170Z,68.72
2018-03-15T12:27:06.652Z,70.42
2018-03-15T12:29:34.153Z,71.04
2018-03-15T12:32:01.654Z,70.70
2018-03-15T12:34:29.181Z,70.03
2018-03-15T12:36:57.668Z,69.97
2018-03-15T12:39:26.063Z,69.26
2018-03-15T12:41:53.552Z,69.00
2018-03-15T12:44:21.028Z,69.75
2018-03-15T12:46:48.512Z,69.89
2018-03-15T12:49:15.994Z,70.10
2018-03-15T12:51:43.477Z,69.80
2018-03-15T12:54:10.957Z,69.65
2018-03-15T12:56:38.492Z,69.32
2018-03-15T12:59:06.003Z,69.50
2018-03-15T13:01:33.788Z,70.00
2018-03-15T13:04:01.448Z,69.97
2018-03-15T13:06:28.910Z,69.37
2018-03-15T13:08:56.405Z,70.17
2018-03-15T13:11:23.920Z,70.11
2018-03-15T13:13:51.728Z,70.32
2018-03-15T13:16:19.447Z,70.56
2018-03-15T13:18:47.056Z,71.09
2018-03-15T13:21:14.524Z,70.29
2018-03-15T13:23:42.019Z,70.22
2018-03-15T13:26:09.505Z,71.44
2018-03-15T13:28:37.032Z,71.01
2018-03-15T13:31:04.543Z,70.58
2018-03-15T13:33:32.050Z,71.37
2018-03-15T13:35:59.552Z,71.68
2018-03-15T13:38:27.048Z,70.94
2018-03-15T13:40:55.098Z,71.50
2018-03-15T13:43:22.576Z,71.48
2018-03-15T13:45:51.386Z,71.42
2018-03-15T13:48:18.880Z,71.24
2018-03-15T13:50:47.362Z,71.43
2018-03-15T13:53:14.884Z,71.34
2018-03-15T13:55:42.383Z,72.10
2018-03-15T13:58:09.869Z,70.95
2018-03-15T14:00:37.562Z,70.79
2018-03-15T14:03:05.030Z,70.46
2018-03-15T14:05:32.581Z,69.72
2018-03-15T14:08:00.109Z,70.19
2018-03-15T14:10:27.594Z,70.65
2018-03-15T14:12:55.091Z,70.10
2018-03-15T14:15:22.562Z,70.29
2018-03-15T14:17:50.076Z,70.97
2018-03-15T14:20:17.578Z,71.34
2018-03-15T14:22:45.096Z,70.63
2018-03-15T14:25:12.576Z,70.38
2018-03-15T14:27:40.060Z,70.72
2018-03-15T14:30:07.549Z,71.39
2018-03-15T14:32:36.439Z,71.53
2018-03-15T14:35:03.912Z,70.79
2018-03-15T14:37:31.440Z,70.42
2018-03-15T14:39:58.933Z,70.84
2018-03-15T14:42:26.408Z,70.91
2018-03-15T14:44:54.920Z,70.55
2018-03-15T14:47:23.466Z,71.12
2018-03-15T14:49:50.960Z,71.17
2018-03-15T14:52:18.452Z,71.08
2018-03-15T14:54:45.961Z,70.74
2018-03-15T14:57:13.449Z,70.78
2018-03-15T14:59:40.923Z,70.93
2018-03-15T15:02:08.425Z,70.94
2018-03-15T15:04:36.467Z,70.61
2018-03-15T15:07:03.960Z,70.95
2018-03-15T15:09:32.130Z,71.44
2018-03-15T15:11:59.619Z,71.26
2018-03-15T15:14:27.109Z,71.79
2018-03-15T15:16:55.044Z,71.95
2018-03-15T15:19:22.526Z,72.66
2018-03-15T15:21:50.024Z,72.70
2018-03-15T15:24:17.521Z,73.23
2018-03-15T15:26:45.635Z,73.27
2018-03-15T15:29:13.155Z,73.61
2018-03-15T15:31:40.631Z,73.98
2018-03-15T15:34:08.097Z,73.69
2018-03-15T15:36:35.558Z,73.93
2018-03-15T15:39:03.048Z,76.77
2018-03-15T15:41:30.530Z,78.38
2018-03-15T15:43:58.014Z,78.29
2018-03-15T15:46:25.521Z,78.10
2018-03-15T15:48:53.005Z,77.69
2018-03-15T15:51:20.486Z,77.29
2018-03-15T15:53:47.992Z,77.32
2018-03-15T15:56:15.461Z,78.37
2018-03-15T15:58:42.930Z,79.50
2018-03-15T16:01:11.173Z,79.67
2018-03-15T16:03:38.988Z,80.02
2018-03-15T16:06:07.460Z,79.96
2018-03-15T16:08:35.622Z,80.19
2018-03-15T16:11:03.315Z,79.61
2018-03-15T16:13:30.881Z,80.32
2018-03-15T16:15:58.363Z,80.42
2018-03-15T16:18:25.868Z,80.50
2018-03-15T16:20:53.363Z,80.69
2018-03-15T16:23:20.837Z,81.33
2018-03-15T16:25:48.362Z,81.16
2018-03-15T16:28:15.950Z,81.20
2018-03-15T16:30:43.486Z,81.09
2018-03-15T16:33:10.980Z,81.03
2018-03-15T16:35:38.461Z,81.18
2018-03-15T16:38:05.953Z,81.37
2018-03-15T16:40:33.452Z,81.24
2018-03-15T16:43:00.923Z,81.48
2018-03-15T16:45:28.405Z,81.40
2018-03-15T16:47:55.896Z,81.59
2018-03-15T16:50:23.995Z,81.65
2018-03-15T16:52:51.473Z,81.55
2018-03-15T16:55:19.374Z,81.58
2018-03-15T16:57:46.880Z,81.50
2018-03-15T17:00:14.362Z,82.35
2018-03-15T17:02:42.313Z,82.01
2018-03-15T17:05:09.819Z,81.98
2018-03-15T17:07:37.323Z,82.04
2018-03-15T17:10:04.844Z,81.93
2018-03-15T17:12:32.335Z,81.86
2018-03-15T17:14:59.813Z,81.76
2018-03-15T17:17:27.964Z,81.70
2018-03-15T17:19:55.490Z,81.79
2018-03-15T17:22:22.942Z,81.55
2018-03-15T17:24:51.046Z,81.66
2018-03-15T17:27:18.576Z,82.19
2018-03-15T17:29:46.096Z,81.85
2018-03-15T17:32:13.584Z,82.12
2018-03-15T17:34:41.077Z,82.04
2018-03-15T17:37:09.593Z,82.17
2018-03-15T17:39:37.059Z,82.41
2018-03-15T17:42:04.538Z,82.74
2018-03-15T17:44:33.021Z,82.53
2018-03-15T17:47:00.549Z,82.97
2018-03-15T17:49:28.051Z,83.12
2018-03-15T17:51:55.524Z,82.76
2018-03-15T17:54:23.011Z,82.79
2018-03-15T17:56:50.482Z,83.17
2018-03-15T17:59:17.980Z,82.86
2018-03-15T18:01:45.544Z,83.04
2018-03-15T18:04:13.083Z,83.14
2018-03-15T18:06:40.596Z,83.18
2018-03-15T18:09:08.111Z,83.22
2018-03-15T18:11:35.774Z,83.31
2018-03-15T18:14:03.276Z,83.58
2018-03-15T18:16:31.449Z,83.34
2018-03-15T18:18:58.946Z,83.45
2018-03-15T18:21:26.885Z,83.38
2018-03-15T18:23:54.369Z,83.44
2018-03-15T18:26:21.855Z,83.37
2018-03-15T18:28:49.334Z,83.33
2018-03-15T18:31:16.830Z,83.59
2018-03-15T18:33:44.330Z,83.65
2018-03-15T18:36:11.882Z,83.50
2018-03-15T18:38:39.845Z,83.49
2018-03-15T18:41:07.915Z,83.62
2018-03-15T18:43:35.410Z,83.62
2018-03-15T18:46:03.520Z,83.62
2018-03-15T18:48:30.997Z,83.78
2018-03-15T18:50:58.528Z,83.81
2018-03-15T18:53:26.427Z,84.00
2018-03-15T18:55:53.932Z,83.82
2018-03-15T18:58:21.412Z,83.88
2018-03-15T19:00:49.235Z,83.99
2018-03-15T19:03:16.699Z,84.08
2018-03-15T19:05:44.194Z,84.20
2018-03-15T19:08:11.682Z,84.15
2018-03-15T19:10:39.178Z,84.04
2018-03-15T19:13:06.689Z,84.30
2018-03-15T19:15:34.209Z,84.45
2018-03-15T19:18:01.715Z,84.70
2018-03-15T19:20:30.098Z,84.66
2018-03-15T19:22:58.866Z,84.80
2018-03-15T19:25:26.354Z,85.07
2018-03-15T19:27:53.871Z,85.11
2018-03-15T19:30:21.374Z,85.08
2018-03-15T19:32:48.873Z,85.24
2018-03-15T19:35:16.398Z,85.38
2018-03-15T19:37:45.768Z,85.63
2018-03-15T19:40:13.352Z,85.70
2018-03-15T19:42:41.499Z,85.64
2018-03-15T19:45:09.166Z,85.96
2018-03-15T19:47:36.753Z,85.93
2018-03-15T19:50:04.273Z,85.66
2018-03-15T19:52:32.360Z,85.83
2018-03-15T19:55:00.139Z,86.11
2018-03-15T19:57:27.622Z,85.88
2018-03-15T19:59:55.146Z,85.62
2018-03-15T20:02:22.940Z,85.73
2018-03-15T20:04:50.969Z,85.74
2018-03-15T20:07:18.550Z,85.91
2018-03-15T20:09:48.987Z,86.25
2018-03-15T20:14:55.492Z,86.27
2018-03-15T20:17:23.002Z,86.32
2018-03-15T20:19:51.562Z,86.41
2018-03-15T20:22:25.210Z,86.50
2018-03-15T20:24:52.745Z,86.60
2018-03-15T20:27:25.782Z,86.52
2018-03-15T20:29:53.296Z,86.66
2018-03-15T20:32:26.430Z,87.09
2018-03-15T20:34:53.969Z,86.76
2018-03-15T20:37:22.200Z,86.93
2018-03-15T20:39:56.856Z,87.18
2018-03-15T20:42:24.458Z,87.04
2018-03-15T20:44:52.998Z,87.35
2018-03-15T20:47:25.985Z,87.01
2018-03-15T20:49:53.526Z,87.33
2018-03-15T20:52:21.030Z,87.38
2018-03-15T20:54:48.548Z,87.19
2018-03-15T20:57:16.042Z,87.47
2018-03-15T20:59:43.546Z,87.55
2018-03-15T21:02:11.041Z,87.51
2018-03-15T21:04:38.601Z,87.61
2018-03-15T21:07:06.224Z,87.68
2018-03-15T21:09:35.302Z,87.86
2018-03-15T21:12:06.442Z,87.60
2018-03-15T21:14:33.926Z,87.73
2018-03-15T21:17:01.431Z,87.68
2018-03-15T21:19:29.960Z,87.70
2018-03-15T21:21:57.539Z,87.88
2018-03-15T21:24:25.765Z,87.94
2018-03-15T21:26:53.417Z,87.87
2018-03-15T21:29:25.753Z,88.06
2018-03-15T21:31:54.227Z,87.91
2018-03-15T21:34:22.786Z,88.16
2018-03-15T21:36:50.912Z,88.10
2018-03-15T21:39:19.312Z,88.19
2018-03-15T21:41:46.820Z,88.22
2018-03-15T21:44:14.312Z,88.12
2018-03-15T21:46:41.953Z,88.40
2018-03-15T21:49:09.452Z,88.30
2018-03-15T21:51:36.933Z,88.30
2018-03-15T21:54:04.457Z,88.43
2018-03-15T21:56:32.113Z,88.40
2018-03-15T21:58:59.618Z,88.63
2018-03-15T22:01:28.039Z,88.68
2018-03-15T22:03:55.618Z,88.72
2018-03-15T22:06:23.096Z,88.57
2018-03-15T22:08:50.564Z,88.60
2018-03-15T22:11:18.125Z,88.74
2018-03-15T22:13:50.169Z,88.75
2018-03-15T22:16:21.561Z,88.59
2018-03-15T22:18:51.071Z,88.70
2018-03-15T22:21:18.688Z,88.59
2018-03-15T22:23:48.445Z,88.49
2018-03-15T22:26:15.910Z,88.62
2018-03-15T22:28:44.382Z,88.67
2018-03-15T22:31:12.532Z,88.69
2018-03-15T22:33:40.101Z,88.85
2018-03-15T22:36:08.697Z,88.57
2018-03-15T22:38:36.266Z,88.91
2018-03-15T22:41:03.730Z,88.70
2018-03-15T22:43:31.222Z,88.96
2018-03-15T22:45:58.734Z,88.83
2018-03-15T22:48:27.269Z,88.78
2018-03-15T22:50:54.752Z,88.95
2018-03-15T22:53:22.277Z,88.81
2018-03-15T22:55:49.800Z,88.83
2018-03-15T22:58:17.382Z,89.03
2018-03-15T23:00:44.893Z,88.90
2018-03-15T23:03:12.385Z,89.01
2018-03-15T23:05:39.900Z,89.03
2018-03-15T23:08:15.541Z,89.09
2018-03-15T23:10:43.153Z,89.33
2018-03-15T23:13:11.345Z,89.19
2018-03-15T23:15:39.463Z,89.16
2018-03-15T23:18:06.944Z,89.29
2018-03-15T23:20:35.130Z,89.42
2018-03-15T23:23:03.519Z,89.45
2018-03-15T23:25:31.143Z,89.33
2018-03-15T23:27:58.876Z,89.32
2018-03-15T23:30:26.761Z,89.41
2018-03-15T23:32:54.253Z,89.47
2018-03-15T23:35:26.196Z,89.15
2018-03-15T23:37:55.065Z,89.53
2018-03-15T23:40:22.857Z,89.37
2018-03-15T23:42:50.433Z,89.31
2018-03-15T23:45:18.152Z,89.50
2018-03-15T23:47:47.564Z,89.69
2018-03-15T23:50:15.049Z,89.83
2018-03-15T23:52:42.576Z,90.00
2018-03-15T23:55:10.078Z,89.73
2018-03-15T23:57:38.931Z,89.69
